createdAt,value
2023-03-04T00:01:29.657Z,11.30
2023-03-04T00:03:57.255Z,11.55
2023-03-04T00:06:25.021Z,12.45
2023-03-04T00:08:52.300Z,12.50
2023-03-04T00:11:19.530Z,11.45
2023-03-04T00:13:48.362Z,10.15
2023-03-04T00:16:16.127Z,10.23
2023-03-04T00:18:43.522Z,9.50
2023-03-04T00:21:10.844Z,9.68
2023-03-04T00:23:38.186Z,10.13
2023-03-04T00:26:05.472Z,10.32
2023-03-04T00:28:32.750Z,9.85
2023-03-04T00:31:01.403Z,9.73
2023-03-04T00:33:28.610Z,9.73
2023-03-04T00:35:56.011Z,10.32
2023-03-04T00:38:23.424Z,9.77
2023-03-04T00:40:50.825Z,9.45
2023-03-04T00:43:18.173Z,9.40
2023-03-04T00:45:48.100Z,9.60
2023-03-04T00:48:17.060Z,9.02
2023-03-04T00:50:44.840Z,8.98
2023-03-04T00:53:12.240Z,9.45
2023-03-04T00:55:39.540Z,9.32
2023-03-04T00:58:07.142Z,9.30
2023-03-04T01:00:34.415Z,10.60
2023-03-04T01:03:02.021Z,9.48
2023-03-04T01:05:30.748Z,9.98
2023-03-04T01:07:58.096Z,9.52
2023-03-04T01:10:25.404Z,9.48
2023-03-04T01:12:52.691Z,8.38
2023-03-04T01:15:20.438Z,10.05
2023-03-04T01:17:47.817Z,9.40
2023-03-04T01:20:16.286Z,9.52
2023-03-04T01:22:44.988Z,10.52
2023-03-04T01:25:12.365Z,9.35
2023-03-04T01:27:39.810Z,11.18
2023-03-04T01:30:08.110Z,10.98
2023-03-04T01:32:35.402Z,9.32
2023-03-04T01:35:02.912Z,9.40
2023-03-04T01:37:30.668Z,10.05
2023-03-04T01:39:59.272Z,9.50
2023-03-04T01:42:30.416Z,10.32
2023-03-04T01:44:57.839Z,9.95
2023-03-04T01:47:28.555Z,10.40
2023-03-04T01:49:57.614Z,10.43
2023-03-04T01:52:27.116Z,11.00
2023-03-04T01:54:54.580Z,13.85
2023-03-04T01:57:25.609Z,15.13
2023-03-04T02:00:22.524Z,14.95
2023-03-04T02:02:52.695Z,14.10
2023-03-04T02:05:20.590Z,13.75
2023-03-04T02:07:48.262Z,14.88
2023-03-04T02:10:16.348Z,14.02
2023-03-04T02:12:45.435Z,13.00
2023-03-04T02:15:13.291Z,11.43
2023-03-04T02:17:40.591Z,11.88
2023-03-04T02:20:20.724Z,13.18
2023-03-04T02:22:57.390Z,12.20
2023-03-04T02:25:31.601Z,11.10
2023-03-04T02:28:00.558Z,12.80
2023-03-04T02:30:27.777Z,12.80
2023-03-04T02:32:55.089Z,11.77
2023-03-04T02:35:22.873Z,11.38
2023-03-04T02:37:50.115Z,11.65
2023-03-04T02:40:24.447Z,11.20
2023-03-04T02:42:51.624Z,10.93
2023-03-04T02:45:36.274Z,11.23
2023-03-04T02:48:06.582Z,10.50
2023-03-04T02:50:36.401Z,10.32
2023-03-04T02:53:04.487Z,11.98
2023-03-04T02:55:31.924Z,11.75
2023-03-04T02:57:59.577Z,12.27
2023-03-04T03:00:27.839Z,11.20
2023-03-04T03:02:56.996Z,11.90
2023-03-04T03:05:26.880Z,12.52
2023-03-04T03:07:55.255Z,10.85
2023-03-04T03:10:23.161Z,11.07
2023-03-04T03:12:50.789Z,11.60
2023-03-04T03:15:19.215Z,10.82
2023-03-04T03:17:46.630Z,11.95
2023-03-04T03:20:17.418Z,11.57
2023-03-04T03:22:44.673Z,10.32
2023-03-04T03:25:13.734Z,11.07
2023-03-04T03:27:41.453Z,11.95
2023-03-04T03:30:11.565Z,12.32
2023-03-04T03:32:38.794Z,11.70
2023-03-04T03:35:06.506Z,12.23
2023-03-04T03:37:35.046Z,11.60
2023-03-04T03:40:02.318Z,13.43
2023-03-04T03:42:29.603Z,12.05
2023-03-04T03:44:56.756Z,11.68
2023-03-04T03:47:24.108Z,12.23
2023-03-04T03:49:51.294Z,10.77
2023-03-04T03:52:18.462Z,11.32
2023-03-04T03:54:46.998Z,12.05
2023-03-04T03:57:14.181Z,15.07
2023-03-04T03:59:41.478Z,11.52
2023-03-04T04:02:08.693Z,11.70
2023-03-04T04:04:36.023Z,11.23
2023-03-04T04:07:03.208Z,12.52
2023-03-04T04:09:30.435Z,11.65
2023-03-04T04:11:59.012Z,11.70
2023-03-04T04:14:26.178Z,12.70
2023-03-04T04:16:53.463Z,11.73
2023-03-04T04:19:21.288Z,13.40
2023-03-04T04:21:48.580Z,12.40
2023-03-04T04:24:16.214Z,11.88
2023-03-04T04:26:43.382Z,12.10
2023-03-04T04:29:13.721Z,12.43
2023-03-04T04:31:41.201Z,12.05
2023-03-04T04:34:08.825Z,11.07
2023-03-04T04:36:36.436Z,11.63
2023-03-04T04:39:04.149Z,12.10
2023-03-04T04:41:36.774Z,12.45
2023-03-04T04:44:04.099Z,11.50
2023-03-04T04:46:32.711Z,11.73
2023-03-04T04:49:00.098Z,12.93
2023-03-04T04:51:27.844Z,11.45
2023-03-04T04:53:55.399Z,13.13
2023-03-04T04:56:24.483Z,12.82
2023-03-04T04:58:53.176Z,12.27
2023-03-04T05:01:20.706Z,14.23
2023-03-04T05:03:49.905Z,12.57
2023-03-04T05:06:17.082Z,12.40
2023-03-04T05:08:44.234Z,11.52
2023-03-04T05:11:11.447Z,13.13
2023-03-04T05:13:38.780Z,12.55
2023-03-04T05:16:07.085Z,12.80
2023-03-04T05:18:34.383Z,12.05
2023-03-04T05:21:04.331Z,12.95
2023-03-04T05:23:33.973Z,12.23
2023-03-04T05:26:01.547Z,12.68
2023-03-04T05:28:28.822Z,14.45
2023-03-04T05:30:56.052Z,13.30
2023-03-04T05:33:23.490Z,14.10
2023-03-04T05:35:50.950Z,14.45
2023-03-04T05:38:19.981Z,14.25
2023-03-04T05:40:48.538Z,13.32
2023-03-04T05:43:16.270Z,14.70
2023-03-04T05:45:43.524Z,13.85
2023-03-04T05:48:10.744Z,13.85
2023-03-04T05:50:37.932Z,13.80
2023-03-04T05:53:05.159Z,13.98
2023-03-04T05:55:33.757Z,14.25
2023-03-04T05:58:00.939Z,14.32
2023-03-04T06:00:28.466Z,14.02
2023-03-04T06:02:55.826Z,13.98
2023-03-04T06:05:23.722Z,13.82
2023-03-04T06:07:50.891Z,14.05
2023-03-04T06:10:18.665Z,12.90
2023-03-04T06:12:47.197Z,13.77
2023-03-04T06:15:14.548Z,13.85
2023-03-04T06:17:42.465Z,13.27
2023-03-04T06:20:11.935Z,14.95
2023-03-04T06:22:39.354Z,13.43
2023-03-04T06:25:08.012Z,14.15
2023-03-04T06:27:35.198Z,14.35
2023-03-04T06:30:04.707Z,14.18
2023-03-04T06:32:32.041Z,14.30
2023-03-04T06:34:59.247Z,15.00
2023-03-04T06:37:26.485Z,16.35
2023-03-04T06:39:53.617Z,13.95
2023-03-04T06:42:20.792Z,15.20
2023-03-04T06:44:49.061Z,13.20
2023-03-04T06:47:17.617Z,13.85
2023-03-04T06:49:44.775Z,14.75
2023-03-04T06:52:11.963Z,13.80
2023-03-04T06:54:39.136Z,13.55
2023-03-04T06:57:06.770Z,13.18
2023-03-04T06:59:34.441Z,13.52
2023-03-04T07:02:01.639Z,15.38
2023-03-04T07:04:30.225Z,22.30
2023-03-04T07:06:57.885Z,18.55
2023-03-04T07:09:25.153Z,15.85
2023-03-04T07:11:52.354Z,15.60
2023-03-04T07:14:19.608Z,16.02
2023-03-04T07:16:46.862Z,16.95
2023-03-04T07:19:14.140Z,16.67
2023-03-04T07:21:42.689Z,15.85
2023-03-04T07:24:09.863Z,14.93
2023-03-04T07:26:37.044Z,15.75
2023-03-04T07:29:04.537Z,15.82
2023-03-04T07:31:33.401Z,14.40
2023-03-04T07:34:03.312Z,13.38
2023-03-04T07:36:31.084Z,13.48
2023-03-04T07:38:59.663Z,14.18
2023-03-04T07:41:28.020Z,15.15
2023-03-04T07:43:56.719Z,14.75
2023-03-04T07:46:24.732Z,15.10
2023-03-04T07:48:51.971Z,16.00
2023-03-04T07:51:21.498Z,16.52
2023-03-04T07:53:51.393Z,15.40
2023-03-04T07:56:21.862Z,14.95
2023-03-04T07:58:49.151Z,14.68
2023-03-04T08:01:18.359Z,15.05
2023-03-04T08:03:46.286Z,13.60
2023-03-04T08:06:15.497Z,14.70
2023-03-04T08:08:43.555Z,15.35
2023-03-04T08:11:12.653Z,14.50
2023-03-04T08:13:41.451Z,14.85
2023-03-04T08:16:12.088Z,14.93
2023-03-04T08:18:39.349Z,14.77
2023-03-04T08:21:08.996Z,15.40
2023-03-04T08:23:36.234Z,15.25
2023-03-04T08:26:06.876Z,15.05
2023-03-04T08:28:34.335Z,15.32
2023-03-04T08:31:02.993Z,14.93
2023-03-04T08:33:31.091Z,12.88
2023-03-04T08:35:58.365Z,15.02
2023-03-04T08:38:25.699Z,14.60
2023-03-04T08:40:53.520Z,14.50
2023-03-04T08:43:20.738Z,14.05
2023-03-04T08:45:47.941Z,14.27
2023-03-04T08:48:17.047Z,14.55
2023-03-04T08:51:01.714Z,14.32
2023-03-04T08:54:07.017Z,14.27
2023-03-04T08:57:37.674Z,16.25
2023-03-04T09:00:46.375Z,13.65
2023-03-04T09:03:53.504Z,14.10
2023-03-04T09:06:32.545Z,16.17
2023-03-04T09:09:44.134Z,14.95
2023-03-04T09:12:23.558Z,14.73
2023-03-04T09:15:30.191Z,14.60
2023-03-04T09:18:28.222Z,14.88
2023-03-04T09:21:24.701Z,15.07
2023-03-04T09:24:32.347Z,13.75
2023-03-04T09:27:24.947Z,16.40
2023-03-04T09:30:28.032Z,14.77
2023-03-04T09:33:37.201Z,12.85
2023-03-04T09:36:04.688Z,13.52
2023-03-04T09:38:33.254Z,13.68
2023-03-04T09:41:06.407Z,14.15
2023-03-04T09:43:34.489Z,14.73
2023-03-04T09:46:04.780Z,14.05
2023-03-04T09:48:40.177Z,15.07
2023-03-04T09:51:19.349Z,14.80
2023-03-04T09:53:59.110Z,14.57
2023-03-04T09:56:27.693Z,14.85
2023-03-04T09:59:05.164Z,15.18
2023-03-04T10:01:38.707Z,14.25
2023-03-04T10:04:12.695Z,14.60
2023-03-04T10:06:41.408Z,14.60
2023-03-04T10:09:16.145Z,15.02
2023-03-04T10:11:46.488Z,13.40
2023-03-04T10:14:31.212Z,14.85
2023-03-04T10:17:03.568Z,13.02
2023-03-04T10:19:44.481Z,13.32
2023-03-04T10:22:19.602Z,13.25
2023-03-04T10:24:48.813Z,13.43
2023-03-04T10:27:19.689Z,13.73
2023-03-04T10:29:48.959Z,14.07
2023-03-04T10:32:18.629Z,13.50
2023-03-04T10:34:46.231Z,9.98
2023-03-04T10:37:13.648Z,10.13
2023-03-04T10:39:42.771Z,10.68
2023-03-04T10:42:28.727Z,10.98
2023-03-04T10:44:58.434Z,9.57
2023-03-04T10:47:28.192Z,9.98
2023-03-04T10:49:57.048Z,8.55
2023-03-04T10:52:29.260Z,7.95
2023-03-04T10:54:58.570Z,8.25
2023-03-04T10:57:33.934Z,9.63
2023-03-04T11:00:02.091Z,9.30
2023-03-04T11:02:30.894Z,8.65
2023-03-04T11:05:07.924Z,8.43
2023-03-04T11:07:53.853Z,9.23
2023-03-04T11:10:25.220Z,8.30
2023-03-04T11:12:59.222Z,9.23
2023-03-04T11:15:28.569Z,8.68
2023-03-04T11:17:59.227Z,8.40
2023-03-04T11:20:31.601Z,8.73
2023-03-04T11:23:04.651Z,8.00
2023-03-04T11:25:34.830Z,7.80
2023-03-04T11:28:11.545Z,8.57
2023-03-04T11:30:43.940Z,8.00
2023-03-04T11:33:24.077Z,7.65
2023-03-04T11:36:02.247Z,7.80
2023-03-04T11:38:33.324Z,7.78
2023-03-04T11:41:05.847Z,7.57
2023-03-04T11:43:37.320Z,7.22
2023-03-04T11:46:44.244Z,8.02
2023-03-04T11:49:32.743Z,8.05
2023-03-04T11:52:09.354Z,8.70
2023-03-04T11:54:46.734Z,8.02
2023-03-04T11:57:30.198Z,7.88
2023-03-04T12:00:16.285Z,8.07
2023-03-04T12:02:51.827Z,7.72
2023-03-04T12:05:43.519Z,7.85
2023-03-04T12:08:26.549Z,8.70
2023-03-04T12:11:01.767Z,8.40
2023-03-04T12:13:46.702Z,6.38
2023-03-04T12:16:35.486Z,6.88
2023-03-04T12:19:15.024Z,6.65
2023-03-04T12:22:11.604Z,7.13
2023-03-04T12:25:03.085Z,7.47
2023-03-04T12:27:39.746Z,6.18
2023-03-04T12:30:17.273Z,7.00
2023-03-04T12:32:51.988Z,6.70
2023-03-04T12:35:28.698Z,6.63
2023-03-04T12:38:08.657Z,6.63
2023-03-04T12:40:44.771Z,6.25
2023-03-04T12:43:28.983Z,5.88
2023-03-04T12:46:07.351Z,6.97
2023-03-04T12:48:39.359Z,5.50
2023-03-04T12:51:28.965Z,5.95
2023-03-04T12:54:09.966Z,6.97
2023-03-04T12:56:40.364Z,5.33
2023-03-04T12:59:14.011Z,7.30
2023-03-04T13:01:46.213Z,6.68
2023-03-04T13:04:23.734Z,6.65
2023-03-04T13:07:08.337Z,6.28
2023-03-04T13:09:44.021Z,6.60
2023-03-04T13:12:15.692Z,6.57
2023-03-04T13:15:27.288Z,6.57
2023-03-04T13:17:56.013Z,6.03
2023-03-04T13:20:37.403Z,6.50
2023-03-04T13:23:23.778Z,6.07
2023-03-04T13:26:16.639Z,6.15
2023-03-04T13:28:44.073Z,5.90
2023-03-04T13:31:17.256Z,5.93
2023-03-04T13:33:58.322Z,5.95
2023-03-04T13:36:33.688Z,5.50
2023-03-04T13:39:03.823Z,4.60
2023-03-04T13:41:45.687Z,4.97
2023-03-04T13:45:00.482Z,5.32
2023-03-04T13:47:35.073Z,5.32
2023-03-04T13:50:32.741Z,4.78
2023-03-04T13:53:29.326Z,3.72
2023-03-04T13:56:11.971Z,5.18
2023-03-04T13:58:39.747Z,4.13
2023-03-04T14:01:21.483Z,3.83
2023-03-04T14:03:48.765Z,3.90
2023-03-04T14:06:18.618Z,3.80
2023-03-04T14:08:48.372Z,3.70
2023-03-04T14:11:19.389Z,3.42
2023-03-04T14:13:46.624Z,3.85
2023-03-04T14:16:20.410Z,3.58
2023-03-04T14:18:57.458Z,3.00
2023-03-04T14:21:24.882Z,3.05
2023-03-04T14:24:03.008Z,4.60
2023-03-04T14:26:30.298Z,2.75
2023-03-04T14:28:57.735Z,3.08
2023-03-04T14:31:27.476Z,3.50
2023-03-04T14:33:55.919Z,2.58
2023-03-04T14:36:24.020Z,2.75
2023-03-04T14:38:57.485Z,2.13
2023-03-04T14:41:29.953Z,2.75
2023-03-04T14:44:06.591Z,2.60
2023-03-04T14:46:40.250Z,2.65
2023-03-04T14:49:12.733Z,2.42
2023-03-04T14:51:43.263Z,2.35
2023-03-04T14:54:29.826Z,2.42
2023-03-04T14:56:59.562Z,2.28
2023-03-04T14:59:31.204Z,2.47
2023-03-04T15:02:20.853Z,2.47
2023-03-04T15:04:49.200Z,2.40
2023-03-04T15:07:18.291Z,3.35
2023-03-04T15:09:51.376Z,4.43
2023-03-04T15:12:26.891Z,3.78
2023-03-04T15:14:55.972Z,3.53
2023-03-04T15:17:27.156Z,4.13
2023-03-04T15:20:02.717Z,4.60
2023-03-04T15:22:29.936Z,5.00
2023-03-04T15:24:58.712Z,4.18
2023-03-04T15:27:29.245Z,4.57
2023-03-04T15:29:58.338Z,3.47
2023-03-04T15:32:25.949Z,8.20
2023-03-04T15:34:53.170Z,12.15
2023-03-04T15:37:23.050Z,4.63
2023-03-04T15:39:50.646Z,4.40
2023-03-04T15:42:18.729Z,3.90
2023-03-04T15:44:47.353Z,5.32
2023-03-04T15:47:14.736Z,3.50
2023-03-04T15:49:43.559Z,2.72
2023-03-04T15:52:16.625Z,3.35
2023-03-04T15:54:43.959Z,2.90
2023-03-04T15:57:18.540Z,3.17
2023-03-04T15:59:47.117Z,3.20
2023-03-04T16:02:19.980Z,3.92
2023-03-04T16:04:47.218Z,3.90
2023-03-04T16:07:18.900Z,3.42
2023-03-04T16:09:48.965Z,3.75
2023-03-04T16:12:16.142Z,3.08
2023-03-04T16:14:43.339Z,3.40
2023-03-04T16:17:11.823Z,3.65
2023-03-04T16:19:39.014Z,7.80
2023-03-04T16:22:06.606Z,7.78
2023-03-04T16:24:34.722Z,6.63
2023-03-04T16:27:04.749Z,7.35
2023-03-04T16:29:33.316Z,8.20
2023-03-04T16:32:00.511Z,7.40
2023-03-04T16:34:29.094Z,7.20
2023-03-04T16:36:56.380Z,7.63
2023-03-04T16:39:24.678Z,7.45
2023-03-04T16:41:52.382Z,8.43
2023-03-04T16:44:19.576Z,7.80
2023-03-04T16:46:46.762Z,7.70
2023-03-04T16:49:14.071Z,7.82
2023-03-04T16:51:46.558Z,8.00
2023-03-04T16:54:16.995Z,8.07
2023-03-04T16:56:44.158Z,8.85
2023-03-04T16:59:14.975Z,8.02
2023-03-04T17:01:42.690Z,8.27
2023-03-04T17:04:10.066Z,7.95
2023-03-04T17:06:37.292Z,8.40
2023-03-04T17:09:06.403Z,8.13
2023-03-04T17:11:33.953Z,11.43
2023-03-04T17:14:01.231Z,8.10
2023-03-04T17:16:28.806Z,8.05
2023-03-04T17:18:56.506Z,8.70
2023-03-04T17:21:27.288Z,8.40
2023-03-04T17:23:54.620Z,8.70
2023-03-04T17:26:23.237Z,7.85
2023-03-04T17:28:51.180Z,7.43
2023-03-04T17:31:20.223Z,7.82
2023-03-04T17:33:48.346Z,8.60
2023-03-04T17:36:18.238Z,7.70
2023-03-04T17:38:45.982Z,7.68
2023-03-04T17:41:14.546Z,8.90
2023-03-04T17:43:44.357Z,9.00
2023-03-04T17:46:13.424Z,9.70
2023-03-04T17:48:41.261Z,7.85
2023-03-04T17:51:09.215Z,8.48
2023-03-04T17:53:36.983Z,8.20
2023-03-04T17:56:06.748Z,7.90
2023-03-04T17:58:36.286Z,7.30
2023-03-04T18:01:06.889Z,7.75
2023-03-04T18:03:34.231Z,7.68
2023-03-04T18:06:01.423Z,7.30
2023-03-04T18:08:28.602Z,8.23
2023-03-04T18:10:55.814Z,7.43
2023-03-04T18:13:23.074Z,8.82
2023-03-04T18:15:50.260Z,8.02
2023-03-04T18:18:18.814Z,8.90
2023-03-04T18:20:45.963Z,11.38
2023-03-04T18:23:13.410Z,8.50
2023-03-04T18:25:40.880Z,7.55
2023-03-04T18:28:08.061Z,6.28
2023-03-04T18:30:35.347Z,7.38
2023-03-04T18:33:02.620Z,5.68
2023-03-04T18:35:31.254Z,5.80
2023-03-04T18:37:58.537Z,6.30
2023-03-04T18:40:25.786Z,5.07
2023-03-04T18:42:53.056Z,7.90
2023-03-04T18:45:20.243Z,9.27
2023-03-04T18:47:49.826Z,8.82
2023-03-04T18:50:17.536Z,9.85
2023-03-04T18:52:46.474Z,44.17
2023-03-04T18:55:13.928Z,8.77
2023-03-04T18:57:44.186Z,10.43
2023-03-04T19:00:17.035Z,8.50
2023-03-04T19:02:49.493Z,8.90
2023-03-04T19:05:21.034Z,9.35
2023-03-04T19:07:49.564Z,10.75
2023-03-04T19:10:17.281Z,10.93
2023-03-04T19:12:44.472Z,9.65
2023-03-04T19:15:13.254Z,9.65
2023-03-04T19:17:40.752Z,9.23
2023-03-04T19:20:10.184Z,7.80
2023-03-04T19:22:37.407Z,9.57
2023-03-04T19:25:07.256Z,10.88
2023-03-04T19:27:34.655Z,10.93
2023-03-04T19:30:02.156Z,10.65
2023-03-04T19:32:29.503Z,7.35
2023-03-04T19:34:56.729Z,9.90
2023-03-04T19:37:24.033Z,10.23
2023-03-04T19:39:51.231Z,10.00
2023-03-04T19:42:19.843Z,9.60
2023-03-04T19:44:47.108Z,9.20
2023-03-04T19:47:14.286Z,9.60
2023-03-04T19:49:41.621Z,8.60
2023-03-04T19:52:08.831Z,9.05
2023-03-04T19:54:36.041Z,11.25
2023-03-04T19:57:03.300Z,10.95
2023-03-04T19:59:31.883Z,10.73
2023-03-04T20:01:59.042Z,10.10
2023-03-04T20:04:26.258Z,10.32
2023-03-04T20:06:53.525Z,8.93
2023-03-04T20:09:20.701Z,9.80
2023-03-04T20:11:57.600Z,11.80
2023-03-04T20:14:25.460Z,10.27
2023-03-04T20:16:54.053Z,9.82
2023-03-04T20:19:21.322Z,10.57
2023-03-04T20:21:48.481Z,9.68
2023-03-04T20:24:15.683Z,10.02
2023-03-04T20:26:42.850Z,8.57
2023-03-04T20:29:10.035Z,8.80
2023-03-04T20:31:38.453Z,8.60
2023-03-04T20:34:08.404Z,8.00
2023-03-04T20:36:36.351Z,10.18
2023-03-04T20:39:12.492Z,8.50
2023-03-04T20:44:12.454Z,9.32
2023-03-04T20:46:40.894Z,8.40
2023-03-04T20:49:11.269Z,9.73
2023-03-04T20:51:38.823Z,7.90
2023-03-04T20:54:06.631Z,8.60
2023-03-04T20:56:34.254Z,9.88
2023-03-04T20:59:03.854Z,8.60
2023-03-04T21:01:32.071Z,8.20
2023-03-04T21:04:00.474Z,9.23
2023-03-04T21:06:29.230Z,8.93
2023-03-04T21:09:00.233Z,8.98
2023-03-04T21:11:27.971Z,9.45
2023-03-04T21:13:55.240Z,10.48
2023-03-04T21:16:24.638Z,10.50
2023-03-04T21:18:52.656Z,8.85
2023-03-04T21:21:22.901Z,11.40
2023-03-04T21:23:53.439Z,11.30
2023-03-04T21:26:21.404Z,11.13
2023-03-04T21:28:49.351Z,9.65
2023-03-04T21:31:18.584Z,11.13
2023-03-04T21:33:46.970Z,9.98
2023-03-04T21:36:14.576Z,8.95
2023-03-04T21:38:43.215Z,10.23
2023-03-04T21:41:12.873Z,9.68
2023-03-04T21:43:40.090Z,8.82
2023-03-04T21:46:07.607Z,8.13
2023-03-04T21:48:35.162Z,9.88
2023-03-04T21:51:03.454Z,10.00
2023-03-04T21:53:30.883Z,10.30
2023-03-04T21:55:58.390Z,10.43
2023-03-04T21:58:27.479Z,10.52
2023-03-04T22:00:54.856Z,9.82
2023-03-04T22:03:22.992Z,9.65
2023-03-04T22:05:50.397Z,11.80
2023-03-04T22:08:20.148Z,9.95
2023-03-04T22:10:47.815Z,10.43
2023-03-04T22:13:15.860Z,11.48
2023-03-04T22:15:44.590Z,11.20
2023-03-04T22:18:13.929Z,10.65
2023-03-04T22:20:43.284Z,10.10
2023-03-04T22:23:11.064Z,11.75
2023-03-04T22:25:41.196Z,11.55
2023-03-04T22:28:08.814Z,10.98
2023-03-04T22:30:36.467Z,11.30
2023-03-04T22:33:05.477Z,11.52
2023-03-04T22:35:32.815Z,10.15
2023-03-04T22:38:00.080Z,9.77
2023-03-04T22:40:27.391Z,9.63
2023-03-04T22:42:54.576Z,10.43
2023-03-04T22:45:21.793Z,8.73
2023-03-04T22:47:50.735Z,9.30
2023-03-04T22:50:20.850Z,8.88
2023-03-04T22:52:48.787Z,7.70
2023-03-04T22:55:17.421Z,9.25
2023-03-04T22:57:44.919Z,15.07
2023-03-04T23:00:19.075Z,12.15
2023-03-04T23:02:46.418Z,11.05
2023-03-04T23:05:13.631Z,11.73
2023-03-04T23:07:42.736Z,11.88
2023-03-04T23:10:13.949Z,13.07
2023-03-04T23:12:41.558Z,14.07
2023-03-04T23:15:11.411Z,13.57
2023-03-04T23:17:38.625Z,13.40
2023-03-04T23:20:06.971Z,13.98
2023-03-04T23:22:34.369Z,12.48
2023-03-04T23:25:03.471Z,12.05
2023-03-04T23:27:30.770Z,11.20
2023-03-04T23:29:58.112Z,11.45
2023-03-04T23:32:25.451Z,11.40
2023-03-04T23:34:52.692Z,11.50
2023-03-04T23:37:20.698Z,13.27
2023-03-04T23:39:47.969Z,13.63
2023-03-04T23:42:17.302Z,13.20
2023-03-04T23:44:44.522Z,14.18
2023-03-04T23:47:11.811Z,13.43
2023-03-04T23:49:39.222Z,13.10
2023-03-04T23:52:06.932Z,13.80
2023-03-04T23:54:34.235Z,11.95
2023-03-04T23:57:01.780Z,11.38
2023-03-04T23:59:30.579Z,11.68
